In Rescue
 
Open Full Screen Window  High Contrast Mode
Wind Gusting 00 knots
03
March 31, 2020 2:54 PM CDT
Weather Information
Wind Direction
  120 °
Wind Speed
  03 kt (3 mph)
Wind Gust
  00 kt (0 mph)
Altimeter
30.13 in
Visibility
10 SM
Temperature
12° C
54° F
Dewpoint
-11° C
12° F
Humidity
19%
1hr Rain Fall
00.00 in.
24hr Rain Fall
00.00 in.
Sky Condition
Clear
VFR

METAR KFOZ 311954Z AUTO 12003KT 10SM CLR 12/M11 A3013 RMK AO2

FAA Disclaimer: The data displayed is for advisory purposes only and is not to be used for flight planning or operations.